createdAt,value
2023-03-01T00:00:37.078Z,56.55
2023-03-01T00:03:07.469Z,56.25
2023-03-01T00:05:37.391Z,56.62
2023-03-01T00:08:07.488Z,56.55
2023-03-01T00:10:37.380Z,57.12
2023-03-01T00:13:09.867Z,56.89
2023-03-01T00:15:42.996Z,56.48
2023-03-01T00:18:12.868Z,56.77
2023-03-01T00:20:42.759Z,57.26
2023-03-01T00:23:12.640Z,57.29
2023-03-01T00:25:45.403Z,56.83
2023-03-01T00:28:18.036Z,57.58
2023-03-01T00:30:47.972Z,57.47
2023-03-01T00:33:18.008Z,57.58
2023-03-01T00:35:48.406Z,57.85
2023-03-01T00:38:18.441Z,57.68
2023-03-01T00:40:48.311Z,57.82
2023-03-01T00:43:20.943Z,58.22
2023-03-01T00:45:50.922Z,57.88
2023-03-01T00:48:20.856Z,58.20
2023-03-01T00:50:50.741Z,58.04
2023-03-01T00:53:20.782Z,58.31
2023-03-01T00:55:50.671Z,57.96
2023-03-01T00:58:23.169Z,58.12
2023-03-01T01:00:53.449Z,58.54
2023-03-01T01:03:24.440Z,58.38
2023-03-01T01:05:54.373Z,58.72
2023-03-01T01:08:24.842Z,58.45
2023-03-01T01:10:54.744Z,58.86
2023-03-01T01:13:27.202Z,58.58
2023-03-01T01:15:57.054Z,58.72
2023-03-01T01:18:26.880Z,58.48
2023-03-01T01:20:56.728Z,58.22
2023-03-01T01:23:26.678Z,58.44
2023-03-01T01:25:56.539Z,58.47
2023-03-01T01:28:28.997Z,58.66
2023-03-01T01:30:58.929Z,58.87
2023-03-01T01:33:29.417Z,59.36
2023-03-01T01:35:59.258Z,59.25
2023-03-01T01:38:29.147Z,59.45
2023-03-01T01:40:59.019Z,59.35
2023-03-01T01:43:33.711Z,59.23
2023-03-01T01:46:07.595Z,59.30
2023-03-01T01:48:45.200Z,59.03
2023-03-01T01:51:20.200Z,59.44
2023-03-01T01:53:56.265Z,59.70
2023-03-01T01:56:30.144Z,59.93
2023-03-01T01:59:03.119Z,60.19
2023-03-01T02:01:32.990Z,59.81
2023-03-01T02:04:03.262Z,60.10
2023-03-01T02:06:40.737Z,59.71
2023-03-01T02:09:16.315Z,59.78
2023-03-01T02:11:48.327Z,60.37
2023-03-01T02:14:21.274Z,60.53
2023-03-01T02:16:52.370Z,60.39
2023-03-01T02:19:38.258Z,59.75
2023-03-01T02:22:22.822Z,59.77
2023-03-01T02:25:07.295Z,59.90
2023-03-01T02:27:51.070Z,60.27
2023-03-01T02:30:26.001Z,60.49
2023-03-01T02:33:03.599Z,60.08
2023-03-01T02:35:39.097Z,60.53
2023-03-01T02:38:12.940Z,60.47
2023-03-01T02:40:45.872Z,60.44
2023-03-01T02:43:18.071Z,60.50
2023-03-01T02:45:55.548Z,59.97
2023-03-01T02:48:25.384Z,59.74
2023-03-01T02:51:13.893Z,59.98
2023-03-01T02:53:57.523Z,60.12
2023-03-01T02:56:27.454Z,60.27
2023-03-01T02:59:01.839Z,60.37
2023-03-01T03:01:40.110Z,60.72
2023-03-01T03:04:18.127Z,60.89
2023-03-01T03:06:52.719Z,60.78
2023-03-01T03:09:23.346Z,61.01
2023-03-01T03:11:53.218Z,61.20
2023-03-01T03:14:23.214Z,60.80
2023-03-01T03:16:55.718Z,60.87
2023-03-01T03:19:25.557Z,60.86
2023-03-01T03:21:55.386Z,61.15
2023-03-01T03:24:25.237Z,61.36
2023-03-01T03:26:55.061Z,61.25
2023-03-01T03:29:24.899Z,61.50
2023-03-01T03:31:57.494Z,61.05
2023-03-01T03:34:28.065Z,61.33
2023-03-01T03:37:00.428Z,61.50
2023-03-01T03:39:35.893Z,61.97
2023-03-01T03:42:05.840Z,62.04
2023-03-01T03:44:35.631Z,61.68
2023-03-01T03:47:08.139Z,61.82
2023-03-01T03:49:37.986Z,61.85
2023-03-01T03:52:14.339Z,61.64
2023-03-01T03:54:44.524Z,61.53
2023-03-01T03:57:14.375Z,61.98
2023-03-01T03:59:44.210Z,61.60
2023-03-01T04:02:23.233Z,61.40
2023-03-01T04:04:53.411Z,62.29
2023-03-01T04:07:23.221Z,62.25
2023-03-01T04:09:53.111Z,62.35
2023-03-01T04:12:24.429Z,62.02
2023-03-01T04:14:54.361Z,62.21
2023-03-01T04:17:26.977Z,62.33
2023-03-01T04:19:56.860Z,62.47
2023-03-01T04:22:30.726Z,62.54
2023-03-01T04:25:02.969Z,62.42
2023-03-01T04:27:32.826Z,62.06
2023-03-01T04:30:02.744Z,62.18
2023-03-01T04:32:35.200Z,62.53
2023-03-01T04:35:05.514Z,62.66
2023-03-01T04:37:35.882Z,62.68
2023-03-01T04:40:16.989Z,62.90
2023-03-01T04:42:46.876Z,62.49
2023-03-01T04:45:17.028Z,61.91
2023-03-01T04:47:53.120Z,62.30
2023-03-01T04:50:24.614Z,62.52
2023-03-01T04:52:54.962Z,62.83
2023-03-01T04:55:26.912Z,62.74
2023-03-01T04:57:57.515Z,62.69
2023-03-01T05:00:27.768Z,62.51
2023-03-01T05:03:03.110Z,62.94
2023-03-01T05:05:37.326Z,63.09
2023-03-01T05:08:10.010Z,63.18
2023-03-01T05:10:40.407Z,63.08
2023-03-01T05:13:10.345Z,63.27
2023-03-01T05:15:40.248Z,63.38
2023-03-01T05:18:12.848Z,63.33
2023-03-01T05:20:42.980Z,63.46
2023-03-01T05:23:12.879Z,63.21
2023-03-01T05:25:43.735Z,63.85
2023-03-01T05:28:15.863Z,63.50
2023-03-01T05:30:45.829Z,63.27
2023-03-01T05:33:18.294Z,63.57
2023-03-01T05:35:49.664Z,64.00
2023-03-01T05:38:19.937Z,63.87
2023-03-01T05:40:52.060Z,63.91
2023-03-01T05:43:21.969Z,63.91
2023-03-01T05:45:52.237Z,64.32
2023-03-01T05:48:24.756Z,64.10
2023-03-01T05:50:54.601Z,63.70
2023-03-01T05:53:24.526Z,64.22
2023-03-01T05:55:54.386Z,64.55
2023-03-01T05:58:25.224Z,63.82
2023-03-01T06:00:56.559Z,63.98
2023-03-01T06:03:29.777Z,63.48
2023-03-01T06:06:00.153Z,63.59
2023-03-01T06:08:30.480Z,63.33
2023-03-01T06:11:00.349Z,63.50
2023-03-01T06:13:30.829Z,63.58
2023-03-01T06:16:00.827Z,63.54
2023-03-01T06:18:33.352Z,63.31
2023-03-01T06:21:03.232Z,62.98
2023-03-01T06:23:33.144Z,64.21
2023-03-01T06:26:03.164Z,63.79
2023-03-01T06:28:32.976Z,63.77
2023-03-01T06:31:02.991Z,63.35
2023-03-01T06:33:35.694Z,63.46
2023-03-01T06:36:06.078Z,63.44
2023-03-01T06:38:36.150Z,63.36
2023-03-01T06:41:06.383Z,64.40
2023-03-01T06:43:36.683Z,63.72
2023-03-01T06:46:09.062Z,63.21
2023-03-01T06:48:41.965Z,63.25
2023-03-01T06:51:11.825Z,63.22
2023-03-01T06:53:41.696Z,63.31
2023-03-01T06:56:11.604Z,63.55
2023-03-01T06:58:41.511Z,63.32
2023-03-01T07:01:12.278Z,63.13
2023-03-01T07:03:45.399Z,63.78
2023-03-01T07:06:15.267Z,64.37
2023-03-01T07:08:45.108Z,63.87
2023-03-01T07:11:14.973Z,63.43
2023-03-01T07:13:45.243Z,63.10
2023-03-01T07:16:15.408Z,63.02
2023-03-01T07:18:47.869Z,63.22
2023-03-01T07:21:18.582Z,62.90
2023-03-01T07:23:51.390Z,63.29
2023-03-01T07:26:21.249Z,62.92
2023-03-01T07:28:51.141Z,62.80
2023-03-01T07:31:21.247Z,62.53
2023-03-01T07:33:53.692Z,62.66
2023-03-01T07:36:24.119Z,62.31
2023-03-01T07:38:54.359Z,62.68
2023-03-01T07:41:24.223Z,62.28
2023-03-01T07:43:54.148Z,62.49
2023-03-01T07:46:24.250Z,62.00
2023-03-01T07:48:56.858Z,61.77
2023-03-01T07:51:26.865Z,61.70
2023-03-01T07:53:56.836Z,61.98
2023-03-01T07:56:26.702Z,61.69
2023-03-01T07:58:56.775Z,61.10
2023-03-01T08:01:26.789Z,61.12
2023-03-01T08:03:59.301Z,60.54
2023-03-01T08:06:29.680Z,60.59
2023-03-01T08:08:59.647Z,60.63
2023-03-01T08:11:32.444Z,60.44
2023-03-01T08:14:02.281Z,60.64
2023-03-01T08:16:33.966Z,60.26
2023-03-01T08:19:11.641Z,60.35
2023-03-01T08:21:42.707Z,59.72
2023-03-01T08:24:13.348Z,59.86
2023-03-01T08:26:43.356Z,59.92
2023-03-01T08:29:13.234Z,59.72
2023-03-01T08:31:43.996Z,59.90
2023-03-01T08:34:20.300Z,59.89
2023-03-01T08:36:51.184Z,59.79
2023-03-01T08:39:23.523Z,59.69
2023-03-01T08:41:53.443Z,59.61
2023-03-01T08:44:23.821Z,59.40
2023-03-01T08:46:56.704Z,59.58
2023-03-01T08:49:29.523Z,59.14
2023-03-01T08:51:59.372Z,59.03
2023-03-01T08:54:29.610Z,59.28
2023-03-01T08:57:00.165Z,59.11
2023-03-01T08:59:30.923Z,58.66
2023-03-01T09:02:00.822Z,58.91
2023-03-01T09:04:34.419Z,58.52
2023-03-01T09:07:04.310Z,58.23
2023-03-01T09:09:34.429Z,58.45
2023-03-01T09:12:04.828Z,58.22
2023-03-01T09:14:34.765Z,57.88
2023-03-01T09:17:05.965Z,58.09
2023-03-01T09:19:38.686Z,57.90
2023-03-01T09:22:08.577Z,58.18
2023-03-01T09:24:38.459Z,57.82
2023-03-01T09:27:09.585Z,57.92
2023-03-01T09:29:40.018Z,57.18
2023-03-01T09:32:10.963Z,57.25
2023-03-01T09:34:55.725Z,57.01
2023-03-01T09:37:28.340Z,56.46
2023-03-01T09:39:58.210Z,56.60
2023-03-01T09:42:29.486Z,56.21
2023-03-01T09:45:05.902Z,56.39
2023-03-01T09:47:39.628Z,56.25
2023-03-01T09:50:18.109Z,55.80
2023-03-01T09:52:54.717Z,55.20
2023-03-01T09:55:33.820Z,55.57
2023-03-01T09:58:21.486Z,55.24
2023-03-01T10:00:53.933Z,55.28
2023-03-01T10:03:32.131Z,55.19
2023-03-01T10:06:24.004Z,54.59
2023-03-01T10:09:14.461Z,54.04
2023-03-01T10:11:50.671Z,53.95
2023-03-01T10:14:36.359Z,53.60
2023-03-01T10:17:13.203Z,52.96
2023-03-01T10:19:46.011Z,52.25
2023-03-01T10:22:22.688Z,52.07
2023-03-01T10:24:55.857Z,51.77
2023-03-01T10:27:28.149Z,51.46
2023-03-01T10:30:12.153Z,50.43
2023-03-01T10:32:42.862Z,50.63
2023-03-01T10:35:21.194Z,50.23
2023-03-01T10:38:08.928Z,49.87
2023-03-01T10:40:41.046Z,49.19
2023-03-01T10:43:16.246Z,48.82
2023-03-01T10:45:46.298Z,48.65
2023-03-01T10:48:18.977Z,47.68
2023-03-01T10:50:51.917Z,47.82
2023-03-01T10:53:31.911Z,47.37
2023-03-01T10:56:05.627Z,46.22
2023-03-01T10:58:37.391Z,46.37
2023-03-01T11:01:09.532Z,45.80
2023-03-01T11:03:42.369Z,45.32
2023-03-01T11:06:27.385Z,44.77
2023-03-01T11:08:59.878Z,44.86
2023-03-01T11:11:38.074Z,44.75
2023-03-01T11:14:26.309Z,44.27
2023-03-01T11:17:05.520Z,43.49
2023-03-01T11:19:36.321Z,42.72
2023-03-01T11:22:11.451Z,41.75
2023-03-01T11:24:49.371Z,41.48
2023-03-01T11:27:27.360Z,39.74
2023-03-01T11:30:04.638Z,38.42
2023-03-01T11:32:46.245Z,37.10
2023-03-01T11:35:22.508Z,37.13
2023-03-01T11:38:06.863Z,37.09
2023-03-01T11:40:45.878Z,34.95
2023-03-01T11:43:25.912Z,34.78
2023-03-01T11:46:26.539Z,32.93
2023-03-01T11:49:11.158Z,33.25
2023-03-01T11:51:52.260Z,33.37
2023-03-01T11:54:47.955Z,32.27
2023-03-01T11:57:43.307Z,32.76
2023-03-01T12:00:39.182Z,32.48
2023-03-01T12:03:45.047Z,31.20
2023-03-01T12:06:39.330Z,31.06
2023-03-01T12:09:34.775Z,30.78
2023-03-01T12:12:39.905Z,29.50
2023-03-01T12:15:37.345Z,31.67
2023-03-01T12:18:34.633Z,29.40
2023-03-01T12:21:21.459Z,28.21
2023-03-01T12:24:27.875Z,28.46
2023-03-01T12:27:23.288Z,26.71
2023-03-01T12:30:07.656Z,27.12
2023-03-01T12:33:08.718Z,26.67
2023-03-01T12:36:06.290Z,25.57
2023-03-01T12:38:44.134Z,24.02
2023-03-01T12:41:51.170Z,26.60
2023-03-01T12:44:44.913Z,25.08
2023-03-01T12:47:41.400Z,25.78
2023-03-01T12:50:24.627Z,24.81
2023-03-01T12:52:59.037Z,24.80
2023-03-01T12:55:38.024Z,25.82
2023-03-01T12:58:25.649Z,26.09
2023-03-01T13:01:13.739Z,26.14
2023-03-01T13:04:08.701Z,25.26
2023-03-01T13:06:51.426Z,24.41
2023-03-01T13:09:35.154Z,25.39
2023-03-01T13:12:12.987Z,25.06
2023-03-01T13:14:50.112Z,25.98
2023-03-01T13:17:45.211Z,24.35
2023-03-01T13:20:20.496Z,26.25
2023-03-01T13:23:09.645Z,24.93
2023-03-01T13:26:15.138Z,24.21
2023-03-01T13:28:57.859Z,24.48
2023-03-01T13:32:00.887Z,24.65
2023-03-01T13:34:50.073Z,23.46
2023-03-01T13:37:38.533Z,22.47
2023-03-01T13:40:38.486Z,22.66
2023-03-01T13:43:36.121Z,21.88
2023-03-01T13:46:15.022Z,21.83
2023-03-01T13:48:48.599Z,21.51
2023-03-01T13:51:18.665Z,20.41
2023-03-01T13:53:51.516Z,20.91
2023-03-01T13:56:28.686Z,21.22
2023-03-01T13:59:08.413Z,22.20
2023-03-01T14:01:42.448Z,22.77
2023-03-01T14:04:26.768Z,21.62
2023-03-01T14:07:13.114Z,21.35
2023-03-01T14:09:46.889Z,21.63
2023-03-01T14:12:30.591Z,20.31
2023-03-01T14:15:08.503Z,21.54
2023-03-01T14:17:50.074Z,21.31
2023-03-01T14:20:24.588Z,21.06
2023-03-01T14:22:59.131Z,22.30
2023-03-01T14:25:34.686Z,22.00
2023-03-01T14:28:08.489Z,20.69
2023-03-01T14:30:46.195Z,24.06
2023-03-01T14:33:25.466Z,22.38
2023-03-01T14:36:01.962Z,22.28
2023-03-01T14:38:38.607Z,23.71
2023-03-01T14:41:13.781Z,23.46
2023-03-01T14:43:49.254Z,24.22
2023-03-01T14:46:30.831Z,24.00
2023-03-01T14:49:07.467Z,24.03
2023-03-01T14:51:41.136Z,24.26
2023-03-01T14:54:25.440Z,23.97
2023-03-01T14:56:58.256Z,23.72
2023-03-01T14:59:28.706Z,24.86
2023-03-01T15:02:02.884Z,25.05
2023-03-01T15:04:34.908Z,24.48
2023-03-01T15:07:06.284Z,24.17
2023-03-01T15:09:40.454Z,25.85
2023-03-01T15:12:43.063Z,26.23
2023-03-01T15:15:47.551Z,25.14
2023-03-01T15:18:23.213Z,26.13
2023-03-01T15:20:55.228Z,26.33
2023-03-01T15:23:28.302Z,26.48
2023-03-01T15:26:02.470Z,25.87
2023-03-01T15:28:36.983Z,26.07
2023-03-01T15:31:22.104Z,26.70
2023-03-01T15:33:55.764Z,28.21
2023-03-01T15:36:40.560Z,29.21
2023-03-01T15:39:44.537Z,31.17
2023-03-01T15:42:17.745Z,30.94
2023-03-01T15:44:48.476Z,33.00
2023-03-01T15:47:31.896Z,33.04
2023-03-01T15:50:04.825Z,33.23
2023-03-01T15:52:40.598Z,33.85
2023-03-01T15:55:20.107Z,34.04
2023-03-01T15:57:51.016Z,34.92
2023-03-01T16:00:21.960Z,35.14
2023-03-01T16:02:52.134Z,35.58
2023-03-01T16:05:28.670Z,35.80
2023-03-01T16:07:58.716Z,35.57
2023-03-01T16:10:28.952Z,35.88
2023-03-01T16:12:58.879Z,35.59
2023-03-01T16:15:33.005Z,36.51
2023-03-01T16:18:03.227Z,36.69
2023-03-01T16:20:36.314Z,37.18
2023-03-01T16:23:09.090Z,37.59
2023-03-01T16:25:42.605Z,37.30
2023-03-01T16:28:12.585Z,37.74
2023-03-01T16:30:43.259Z,38.56
2023-03-01T16:33:27.405Z,38.42
2023-03-01T16:36:10.044Z,38.45
2023-03-01T16:38:41.034Z,38.93
2023-03-01T16:41:16.136Z,39.20
2023-03-01T16:43:47.577Z,39.29
2023-03-01T16:46:20.927Z,39.49
2023-03-01T16:48:52.080Z,39.55
2023-03-01T16:51:26.394Z,39.17
2023-03-01T16:53:56.661Z,39.92
2023-03-01T16:56:26.611Z,39.54
2023-03-01T16:58:57.260Z,40.13
2023-03-01T17:01:27.225Z,39.70
2023-03-01T17:03:57.121Z,39.95
2023-03-01T17:06:29.571Z,40.26
2023-03-01T17:09:00.884Z,41.02
2023-03-01T17:11:31.521Z,41.18
2023-03-01T17:14:01.533Z,41.44
2023-03-01T17:16:31.750Z,41.29
2023-03-01T17:19:01.641Z,40.70
2023-03-01T17:21:34.646Z,40.81
2023-03-01T17:24:04.855Z,41.12
2023-03-01T17:26:34.841Z,41.70
2023-03-01T17:29:05.604Z,41.66
2023-03-01T17:31:36.610Z,41.93
2023-03-01T17:34:06.573Z,41.96
2023-03-01T17:36:44.772Z,41.87
2023-03-01T17:39:14.761Z,42.15
2023-03-01T17:41:44.771Z,42.10
2023-03-01T17:44:14.969Z,42.30
2023-03-01T17:46:44.854Z,42.97
2023-03-01T17:49:14.735Z,42.79
2023-03-01T17:51:47.253Z,42.76
2023-03-01T17:54:17.141Z,42.47
2023-03-01T17:56:46.994Z,43.12
2023-03-01T17:59:17.669Z,43.16
2023-03-01T18:01:47.764Z,43.20
2023-03-01T18:04:18.536Z,43.34
2023-03-01T18:06:51.004Z,43.31
2023-03-01T18:09:22.365Z,43.68
2023-03-01T18:11:53.913Z,43.53
2023-03-01T18:14:23.839Z,43.60
2023-03-01T18:16:53.860Z,43.43
2023-03-01T18:19:23.837Z,43.87
2023-03-01T18:21:56.401Z,44.25
2023-03-01T18:24:28.831Z,44.18
2023-03-01T18:26:58.771Z,44.13
2023-03-01T18:29:28.857Z,44.54
2023-03-01T18:31:59.063Z,44.45
2023-03-01T18:34:28.952Z,44.29
2023-03-01T18:37:09.150Z,44.64
2023-03-01T18:39:41.835Z,44.92
2023-03-01T18:42:11.807Z,44.67
2023-03-01T18:44:41.700Z,45.00
2023-03-01T18:47:11.600Z,45.17
2023-03-01T18:49:41.579Z,45.33
2023-03-01T18:52:14.677Z,45.44
2023-03-01T18:54:44.590Z,45.60
2023-03-01T18:57:14.410Z,45.76
2023-03-01T18:59:44.599Z,45.59
2023-03-01T19:02:15.742Z,46.20
2023-03-01T19:04:46.048Z,46.19
2023-03-01T19:07:18.484Z,46.14
2023-03-01T19:09:48.427Z,46.23
2023-03-01T19:12:18.332Z,46.58
2023-03-01T19:14:48.253Z,46.69
2023-03-01T19:17:19.948Z,46.86
2023-03-01T19:19:50.189Z,46.71
2023-03-01T19:22:22.800Z,46.74
2023-03-01T19:24:52.885Z,47.13
2023-03-01T19:27:23.058Z,46.77
2023-03-01T19:29:53.071Z,47.19
2023-03-01T19:32:23.162Z,46.92
2023-03-01T19:34:53.448Z,47.42
2023-03-01T19:37:26.008Z,47.17
2023-03-01T19:39:56.014Z,47.76
2023-03-01T19:42:27.452Z,48.10
2023-03-01T19:44:57.479Z,47.96
2023-03-01T19:47:27.348Z,47.63
2023-03-01T19:49:57.260Z,47.65
2023-03-01T19:52:29.826Z,47.75
2023-03-01T19:55:09.326Z,47.75
2023-03-01T19:57:39.626Z,47.66
2023-03-01T20:00:11.337Z,48.08
2023-03-01T20:02:44.535Z,47.88
2023-03-01T20:05:14.511Z,47.86
2023-03-01T20:07:47.016Z,47.98
2023-03-01T20:10:17.013Z,48.43
2023-03-01T20:12:46.997Z,48.55
2023-03-01T20:15:17.016Z,48.22
2023-03-01T20:17:47.154Z,48.00
2023-03-01T20:20:17.364Z,48.21
2023-03-01T20:22:50.160Z,48.17
2023-03-01T20:25:20.448Z,48.09
2023-03-01T20:27:53.102Z,48.37
2023-03-01T20:30:23.270Z,48.59
2023-03-01T20:32:53.293Z,48.44
2023-03-01T20:35:23.513Z,48.36
2023-03-01T20:37:56.837Z,48.29
2023-03-01T20:40:28.408Z,48.41
2023-03-01T20:42:58.648Z,48.44
2023-03-01T20:45:28.666Z,48.58
2023-03-01T20:47:59.004Z,48.96
2023-03-01T20:50:28.896Z,49.04
2023-03-01T20:53:01.358Z,49.03
2023-03-01T20:55:31.447Z,48.70
2023-03-01T20:58:01.490Z,49.12
2023-03-01T21:00:31.420Z,49.17
2023-03-01T21:03:01.335Z,49.39
2023-03-01T21:05:32.576Z,49.09
2023-03-01T21:08:05.614Z,49.33
2023-03-01T21:10:35.971Z,49.51
2023-03-01T21:13:05.874Z,49.40
2023-03-01T21:15:35.808Z,49.66
2023-03-01T21:18:05.688Z,49.52
2023-03-01T21:20:42.901Z,49.65
2023-03-01T21:23:15.509Z,50.05
2023-03-01T21:25:45.434Z,49.88
2023-03-01T21:28:15.493Z,50.24
2023-03-01T21:30:45.346Z,50.14
2023-03-01T21:33:15.231Z,50.23
2023-03-01T21:35:45.199Z,50.86
2023-03-01T21:38:17.738Z,50.64
2023-03-01T21:40:47.600Z,50.53
2023-03-01T21:43:17.497Z,50.86
2023-03-01T21:45:47.432Z,50.79
2023-03-01T21:48:17.410Z,50.71
2023-03-01T21:50:47.300Z,51.08
2023-03-01T21:53:20.136Z,51.03
2023-03-01T21:55:51.796Z,51.10
2023-03-01T21:58:22.744Z,51.38
2023-03-01T22:00:52.778Z,51.62
2023-03-01T22:03:23.120Z,51.90
2023-03-01T22:06:02.194Z,52.14
2023-03-01T22:08:34.732Z,51.59
2023-03-01T22:11:05.551Z,51.58
2023-03-01T22:13:35.577Z,52.31
2023-03-01T22:16:05.904Z,52.09
2023-03-01T22:18:35.875Z,52.27
2023-03-01T22:21:07.696Z,52.26
2023-03-01T22:23:42.263Z,52.17
2023-03-01T22:26:25.109Z,52.33
2023-03-01T22:28:56.717Z,52.50
2023-03-01T22:31:26.828Z,52.56
2023-03-01T22:33:57.871Z,52.62
2023-03-01T22:36:28.539Z,52.69
2023-03-01T22:39:02.170Z,52.58
2023-03-01T22:41:34.420Z,52.95
2023-03-01T22:44:04.667Z,53.43
2023-03-01T22:46:34.997Z,53.08
2023-03-01T22:49:05.430Z,53.68
2023-03-01T22:51:38.258Z,53.79
2023-03-01T22:54:11.863Z,53.70
2023-03-01T22:56:43.164Z,54.07
2023-03-01T22:59:15.691Z,53.81
2023-03-01T23:01:48.196Z,54.39
2023-03-01T23:04:19.022Z,54.15
2023-03-01T23:06:56.947Z,54.63
2023-03-01T23:09:32.869Z,54.10
2023-03-01T23:12:07.489Z,54.65
2023-03-01T23:14:39.725Z,54.74
2023-03-01T23:17:10.966Z,54.37
2023-03-01T23:19:40.912Z,54.77
2023-03-01T23:22:10.868Z,54.49
2023-03-01T23:24:43.402Z,55.01
2023-03-01T23:27:17.438Z,55.27
2023-03-01T23:29:48.290Z,55.00
2023-03-01T23:32:18.280Z,55.44
2023-03-01T23:34:48.537Z,55.57
2023-03-01T23:37:18.521Z,55.86
2023-03-01T23:39:51.122Z,55.80
2023-03-01T23:42:20.958Z,55.98
2023-03-01T23:44:50.841Z,56.11
2023-03-01T23:47:20.716Z,55.97
2023-03-01T23:49:52.677Z,56.03
2023-03-01T23:52:22.571Z,56.02
2023-03-01T23:54:55.017Z,56.49
2023-03-01T23:57:24.903Z,56.67
2023-03-01T23:59:54.695Z,56.92
